createdAt,value
2023-03-18T00:00:10.052Z,97438.16
2023-03-18T00:02:11.614Z,97435.69
2023-03-18T00:04:12.989Z,97429.72
2023-03-18T00:06:14.292Z,97429.81
2023-03-18T00:08:16.768Z,97430.69
2023-03-18T00:10:18.905Z,97430.69
2023-03-18T00:12:20.269Z,97429.81
2023-03-18T00:14:22.481Z,97428.06
2023-03-18T00:16:23.871Z,97423.00
2023-03-18T00:18:25.676Z,97423.06
2023-03-18T00:20:38.643Z,97420.16
2023-03-18T00:22:40.121Z,97425.09
2023-03-18T00:24:41.463Z,97432.38
2023-03-18T00:26:43.672Z,97430.09
2023-03-18T00:28:44.999Z,97441.88
2023-03-18T00:30:47.668Z,97427.88
2023-03-18T00:32:49.068Z,97420.34
2023-03-18T00:34:50.758Z,97421.47
2023-03-18T00:36:57.028Z,97433.09
2023-03-18T00:38:59.615Z,97427.06
2023-03-18T00:41:15.767Z,97429.41
2023-03-18T00:43:17.418Z,97296.34
2023-03-18T00:45:18.753Z,97423.06
2023-03-18T00:47:21.159Z,97420.34
2023-03-18T00:49:22.481Z,97419.25
2023-03-18T00:51:23.794Z,97415.72
2023-03-18T00:53:26.211Z,97424.81
2023-03-18T00:55:27.542Z,97412.72
2023-03-18T00:57:29.470Z,97422.78
2023-03-18T00:59:30.773Z,97417.56
2023-03-18T01:01:32.110Z,97408.16
2023-03-18T01:03:33.969Z,97402.94
2023-03-18T01:05:35.847Z,97412.25
2023-03-18T01:07:37.809Z,97414.03
2023-03-18T01:09:41.918Z,97411.41
2023-03-18T01:11:43.211Z,97403.81
2023-03-18T01:13:44.517Z,97410.66
2023-03-18T01:15:45.866Z,97409.81
2023-03-18T01:17:47.169Z,97401.44
2023-03-18T01:19:49.963Z,97394.72
2023-03-18T01:21:51.746Z,97406.84
2023-03-18T01:23:53.367Z,97405.25
2023-03-18T01:25:55.995Z,97408.81
2023-03-18T01:27:58.252Z,97412.31
2023-03-18T01:29:59.843Z,97410.81
2023-03-18T01:32:02.290Z,97407.50
2023-03-18T01:34:03.650Z,97410.22
2023-03-18T01:36:05.123Z,97397.56
2023-03-18T01:38:06.537Z,97403.53
2023-03-18T01:40:07.831Z,97407.00
2023-03-18T01:42:09.157Z,97405.31
2023-03-18T01:44:11.071Z,97409.72
2023-03-18T01:46:13.513Z,97412.28
2023-03-18T01:48:14.819Z,97400.41
2023-03-18T01:50:16.167Z,97395.28
2023-03-18T01:52:18.212Z,97401.25
2023-03-18T01:54:19.516Z,97401.41
2023-03-18T01:56:20.986Z,97398.09
2023-03-18T01:58:22.330Z,97407.31
2023-03-18T02:00:23.658Z,97409.00
2023-03-18T02:02:25.317Z,97396.31
2023-03-18T02:04:26.620Z,97409.06
2023-03-18T02:06:27.910Z,97393.84
2023-03-18T02:08:29.219Z,97403.22
2023-03-18T02:10:31.237Z,97399.81
2023-03-18T02:12:33.445Z,97396.47
2023-03-18T02:14:34.768Z,97401.56
2023-03-18T02:16:36.203Z,97410.97
2023-03-18T02:18:38.858Z,97398.09
2023-03-18T02:20:40.684Z,97402.19
2023-03-18T02:22:43.384Z,97389.41
2023-03-18T02:24:44.696Z,97392.75
2023-03-18T02:26:45.989Z,97383.31
2023-03-18T02:28:47.409Z,97387.50
2023-03-18T02:30:48.831Z,97395.00
2023-03-18T02:32:50.837Z,97396.34
2023-03-18T02:34:52.200Z,97395.53
2023-03-18T02:36:53.644Z,97403.03
2023-03-18T02:38:54.944Z,97408.03
2023-03-18T02:40:56.299Z,97399.47
2023-03-18T02:42:57.584Z,97408.81
2023-03-18T02:44:58.986Z,97405.41
2023-03-18T02:47:00.728Z,97405.38
2023-03-18T02:49:02.212Z,97415.66
2023-03-18T02:51:03.521Z,97420.88
2023-03-18T02:53:04.807Z,97417.53
2023-03-18T02:55:07.168Z,97420.19
2023-03-18T02:57:08.920Z,97425.41
2023-03-18T02:59:10.270Z,97434.00
2023-03-18T03:01:11.767Z,97430.59
2023-03-18T03:03:13.192Z,97428.91
2023-03-18T03:05:15.372Z,97429.84
2023-03-18T03:07:16.683Z,97432.47
2023-03-18T03:09:18.100Z,97426.53
2023-03-18T03:11:19.635Z,97423.97
2023-03-18T03:13:21.021Z,97426.53
2023-03-18T03:15:22.330Z,97432.59
2023-03-18T03:17:24.299Z,97436.06
2023-03-18T03:19:25.898Z,97427.53
2023-03-18T03:21:27.772Z,97434.44
2023-03-18T03:23:29.372Z,97431.03
2023-03-18T03:25:30.913Z,97437.84
2023-03-18T03:27:32.918Z,97444.66
2023-03-18T03:29:34.486Z,97425.94
2023-03-18T03:31:35.811Z,97428.47
2023-03-18T03:33:37.596Z,97433.59
2023-03-18T03:35:39.025Z,97432.75
2023-03-18T03:37:40.735Z,97436.09
2023-03-18T03:39:42.033Z,97430.09
2023-03-18T03:41:43.332Z,97429.91
2023-03-18T03:43:44.953Z,97434.09
2023-03-18T03:45:46.306Z,97442.59
2023-03-18T03:47:47.806Z,97440.06
2023-03-18T03:49:49.113Z,97440.03
2023-03-18T03:51:50.539Z,97432.22
2023-03-18T03:53:51.869Z,97435.53
2023-03-18T03:55:53.168Z,97432.97
2023-03-18T03:57:54.511Z,97427.81
2023-03-18T03:59:56.419Z,97429.44
2023-03-18T04:01:57.712Z,97443.84
2023-03-18T04:04:00.774Z,97443.72
2023-03-18T04:06:02.116Z,97438.63
2023-03-18T04:08:03.471Z,97449.72
2023-03-18T04:10:04.779Z,97447.09
2023-03-18T04:12:06.075Z,97443.78
2023-03-18T04:14:08.107Z,97452.28
2023-03-18T04:16:09.667Z,97445.47
2023-03-18T04:18:11.831Z,97451.03
2023-03-18T04:20:13.176Z,97459.66
2023-03-18T04:22:14.472Z,97450.28
2023-03-18T04:24:15.763Z,97452.00
2023-03-18T04:26:17.130Z,97448.63
2023-03-18T04:28:18.473Z,97449.44
2023-03-18T04:30:23.302Z,97449.44
2023-03-18T04:32:24.665Z,97460.59
2023-03-18T04:34:26.011Z,97464.09
2023-03-18T04:36:28.349Z,97460.69
2023-03-18T04:38:29.765Z,97468.44
2023-03-18T04:40:31.440Z,97464.19
2023-03-18T04:42:32.834Z,97465.09
2023-03-18T04:44:34.169Z,97462.53
2023-03-18T04:46:35.550Z,97473.63
2023-03-18T04:48:37.474Z,97473.59
2023-03-18T04:50:38.782Z,97473.59
2023-03-18T04:52:40.090Z,97482.19
2023-03-18T04:54:42.810Z,97480.53
2023-03-18T04:56:44.580Z,97483.00
2023-03-18T04:58:46.085Z,97339.41
2023-03-18T05:00:47.535Z,97493.16
2023-03-18T05:02:48.858Z,97485.47
2023-03-18T05:04:50.320Z,97488.00
2023-03-18T05:06:52.194Z,97487.94
2023-03-18T05:08:53.492Z,97498.94
2023-03-18T05:10:54.795Z,97496.28
2023-03-18T05:12:56.091Z,97497.91
2023-03-18T05:14:57.393Z,97489.28
2023-03-18T05:16:58.752Z,97490.97
2023-03-18T05:19:00.097Z,97491.75
2023-03-18T05:21:01.482Z,97493.47
2023-03-18T05:23:03.104Z,97496.84
2023-03-18T05:25:05.493Z,97497.72
2023-03-18T05:27:06.879Z,97490.78
2023-03-18T05:29:09.197Z,97489.88
2023-03-18T05:31:10.512Z,97490.72
2023-03-18T05:33:12.062Z,97491.50
2023-03-18T05:35:13.581Z,97493.19
2023-03-18T05:37:15.447Z,97486.38
2023-03-18T05:39:16.853Z,97486.44
2023-03-18T05:41:18.299Z,97491.47
2023-03-18T05:43:20.140Z,97492.41
2023-03-18T05:45:21.864Z,97499.31
2023-03-18T05:47:23.182Z,97497.72
2023-03-18T05:49:24.584Z,97499.50
2023-03-18T05:51:26.548Z,97493.56
2023-03-18T05:53:27.920Z,97494.38
2023-03-18T05:55:29.641Z,97502.03
2023-03-18T05:57:31.151Z,97490.97
2023-03-18T05:59:32.597Z,97502.97
2023-03-18T06:01:34.144Z,97502.13
2023-03-18T06:03:35.834Z,97497.06
2023-03-18T06:05:37.216Z,97503.09
2023-03-18T06:07:38.528Z,97501.47
2023-03-18T06:09:39.875Z,97501.50
2023-03-18T06:11:41.208Z,97505.75
2023-03-18T06:13:43.428Z,97509.22
2023-03-18T06:15:47.665Z,97501.56
2023-03-18T06:17:50.099Z,97508.19
2023-03-18T06:19:51.636Z,97508.91
2023-03-18T06:21:53.160Z,97502.13
2023-03-18T06:23:54.495Z,97506.34
2023-03-18T06:25:56.141Z,97508.09
2023-03-18T06:27:57.554Z,97505.38
2023-03-18T06:30:02.785Z,97501.09
2023-03-18T06:32:04.120Z,97505.28
2023-03-18T06:34:05.512Z,97501.78
2023-03-18T06:36:06.912Z,97504.34
2023-03-18T06:38:10.699Z,97494.97
2023-03-18T06:40:12.452Z,97510.28
2023-03-18T06:42:13.919Z,97506.03
2023-03-18T06:44:15.207Z,97505.09
2023-03-18T06:46:16.510Z,97503.41
2023-03-18T06:48:18.760Z,97505.97
2023-03-18T06:50:20.789Z,97519.63
2023-03-18T06:52:23.319Z,97514.56
2023-03-18T06:54:25.533Z,97525.53
2023-03-18T06:56:26.838Z,97530.66
2023-03-18T06:58:28.167Z,97534.09
2023-03-18T07:00:32.259Z,97537.59
2023-03-18T07:02:33.753Z,97537.59
2023-03-18T07:04:35.575Z,97534.34
2023-03-18T07:06:37.591Z,97537.81
2023-03-18T07:08:38.882Z,97548.31
2023-03-18T07:10:43.424Z,97557.78
2023-03-18T07:12:44.803Z,97563.81
2023-03-18T07:14:47.035Z,97567.41
2023-03-18T07:16:48.370Z,97569.34
2023-03-18T07:18:49.669Z,97560.16
2023-03-18T07:20:50.963Z,97559.56
2023-03-18T07:22:52.511Z,97556.22
2023-03-18T07:24:53.855Z,97559.69
2023-03-18T07:26:55.290Z,97555.47
2023-03-18T07:28:56.892Z,97554.59
2023-03-18T07:30:58.275Z,97556.25
2023-03-18T07:32:59.882Z,97562.19
2023-03-18T07:35:03.027Z,97559.41
2023-03-18T07:37:04.368Z,97547.22
2023-03-18T07:39:05.770Z,97553.97
2023-03-18T07:41:07.357Z,97553.09
2023-03-18T07:43:09.228Z,97576.88
2023-03-18T07:45:10.589Z,97565.78
2023-03-18T07:47:12.086Z,97436.25
2023-03-18T07:49:13.384Z,97567.16
2023-03-18T07:51:15.538Z,97571.31
2023-03-18T07:53:16.997Z,97573.66
2023-03-18T07:55:18.337Z,97562.56
2023-03-18T07:57:19.692Z,97566.56
2023-03-18T07:59:21.038Z,97565.50
2023-03-18T08:01:22.337Z,97565.16
2023-03-18T08:03:23.731Z,97575.91
2023-03-18T08:05:25.463Z,97576.03
2023-03-18T08:07:26.852Z,97577.47
2023-03-18T08:09:28.192Z,97577.75
2023-03-18T08:11:29.523Z,97583.81
2023-03-18T08:13:30.952Z,97578.91
2023-03-18T08:15:32.448Z,97580.50
2023-03-18T08:17:33.825Z,97576.78
2023-03-18T08:19:35.677Z,97579.66
2023-03-18T08:21:37.032Z,97579.09
2023-03-18T08:23:38.620Z,97583.44
2023-03-18T08:25:39.920Z,97584.34
2023-03-18T08:27:41.351Z,97580.88
2023-03-18T08:29:42.856Z,97583.41
2023-03-18T08:31:44.342Z,97585.22
2023-03-18T08:33:46.246Z,97580.16
2023-03-18T08:35:47.616Z,97582.72
2023-03-18T08:37:51.242Z,97585.28
2023-03-18T08:39:52.648Z,97591.25
2023-03-18T08:41:53.960Z,97589.47
2023-03-18T08:43:57.364Z,97591.16
2023-03-18T08:45:58.908Z,97582.72
2023-03-18T08:48:00.302Z,97579.31
2023-03-18T08:50:01.628Z,97578.47
2023-03-18T08:52:03.117Z,97576.78
2023-03-18T08:54:04.429Z,97582.91
2023-03-18T08:56:06.980Z,97582.06
2023-03-18T08:58:08.343Z,97587.25
2023-03-18T09:00:10.054Z,97583.09
2023-03-18T09:02:11.371Z,97577.22
2023-03-18T09:04:13.210Z,97587.34
2023-03-18T09:06:14.708Z,97579.69
2023-03-18T09:08:16.044Z,97579.94
2023-03-18T09:10:18.283Z,97572.41
2023-03-18T09:12:20.021Z,97563.06
2023-03-18T09:14:21.383Z,97558.03
2023-03-18T09:16:23.022Z,97558.03
2023-03-18T09:18:24.984Z,97556.25
2023-03-18T09:20:26.503Z,97561.28
2023-03-18T09:22:27.871Z,97564.53
2023-03-18T09:24:29.166Z,97557.53
2023-03-18T09:26:30.456Z,97566.63
2023-03-18T09:28:32.043Z,97561.31
2023-03-18T09:30:33.794Z,97557.69
2023-03-18T09:32:35.312Z,97569.31
2023-03-18T09:34:36.663Z,97553.75
2023-03-18T09:36:38.088Z,97570.66
2023-03-18T09:38:39.412Z,97564.63
2023-03-18T09:40:40.708Z,97564.63
2023-03-18T09:42:42.205Z,97568.81
2023-03-18T09:44:43.686Z,97568.69
2023-03-18T09:46:45.155Z,97571.13
2023-03-18T09:48:46.765Z,97568.69
2023-03-18T09:50:48.624Z,97570.56
2023-03-18T09:52:50.168Z,97571.56
2023-03-18T09:54:51.676Z,97571.66
2023-03-18T09:56:53.031Z,97562.19
2023-03-18T09:58:54.607Z,97562.94
2023-03-18T10:00:56.244Z,97574.91
2023-03-18T10:02:57.606Z,97569.16
2023-03-18T10:04:58.948Z,97570.13
2023-03-18T10:07:00.283Z,97571.81
2023-03-18T10:09:02.087Z,97578.59
2023-03-18T10:11:03.395Z,97577.75
2023-03-18T10:13:04.729Z,97586.31
2023-03-18T10:15:06.827Z,97497.81
2023-03-18T10:17:09.390Z,97581.13
2023-03-18T10:19:10.749Z,97587.00
2023-03-18T10:21:12.049Z,97592.13
2023-03-18T10:23:13.540Z,97593.91
2023-03-18T10:25:15.038Z,97582.00
2023-03-18T10:27:17.651Z,97584.59
2023-03-18T10:29:19.331Z,97595.84
2023-03-18T10:31:21.110Z,97578.91
2023-03-18T10:33:22.845Z,97579.00
2023-03-18T10:35:24.164Z,97582.50
2023-03-18T10:37:25.775Z,97322.28
2023-03-18T10:39:27.081Z,97582.75
2023-03-18T10:41:28.862Z,97585.31
2023-03-18T10:43:30.558Z,97582.84
2023-03-18T10:45:32.732Z,97576.09
2023-03-18T10:47:34.924Z,97583.78
2023-03-18T10:49:36.348Z,97585.50
2023-03-18T10:51:37.664Z,97593.97
2023-03-18T10:53:39.104Z,97588.84
2023-03-18T10:55:40.589Z,97594.00
2023-03-18T10:57:42.306Z,97589.56
2023-03-18T10:59:45.435Z,97589.53
2023-03-18T11:01:47.016Z,97590.22
2023-03-18T11:03:48.368Z,97596.78
2023-03-18T11:05:49.691Z,97595.81
2023-03-18T11:07:52.516Z,97604.97
2023-03-18T11:09:53.835Z,97598.75
2023-03-18T11:11:55.173Z,97596.28
2023-03-18T11:13:57.033Z,97599.69
2023-03-18T11:15:58.676Z,97599.63
2023-03-18T11:18:00.043Z,97604.81
2023-03-18T11:20:02.166Z,97607.53
2023-03-18T11:22:04.551Z,97606.00
2023-03-18T11:24:10.533Z,97597.66
2023-03-18T11:26:11.902Z,97599.47
2023-03-18T11:28:13.402Z,97602.00
2023-03-18T11:30:21.437Z,97603.69
2023-03-18T11:32:29.302Z,97619.13
2023-03-18T11:34:30.652Z,97599.69
2023-03-18T11:36:32.989Z,97606.84
2023-03-18T11:38:34.291Z,97602.00
2023-03-18T11:40:35.836Z,97608.28
2023-03-18T11:42:38.014Z,97605.63
2023-03-18T11:44:39.338Z,97603.97
2023-03-18T11:46:40.747Z,97599.28
2023-03-18T11:48:42.096Z,97600.81
2023-03-18T11:50:43.387Z,97596.41
2023-03-18T11:52:44.681Z,97601.41
2023-03-18T11:54:46.259Z,97607.22
2023-03-18T11:56:47.563Z,97600.31
2023-03-18T11:58:48.944Z,97593.53
2023-03-18T12:00:50.413Z,97597.00
2023-03-18T12:02:51.734Z,97597.84
2023-03-18T12:04:53.945Z,97590.22
2023-03-18T12:06:56.083Z,97597.84
2023-03-18T12:08:58.110Z,97596.09
2023-03-18T12:11:06.036Z,97589.28
2023-03-18T12:13:10.012Z,97590.16
2023-03-18T12:15:11.576Z,97591.78
2023-03-18T12:17:13.819Z,97595.00
2023-03-18T12:19:15.155Z,97600.06
2023-03-18T12:21:16.464Z,97602.53
2023-03-18T12:23:17.820Z,97599.13
2023-03-18T12:25:19.148Z,97594.88
2023-03-18T12:27:21.004Z,97599.22
2023-03-18T12:29:22.333Z,97595.84
2023-03-18T12:31:23.824Z,97600.94
2023-03-18T12:33:25.184Z,97599.28
2023-03-18T12:35:26.549Z,97597.56
2023-03-18T12:37:31.929Z,97602.75
2023-03-18T12:39:33.968Z,97602.81
2023-03-18T12:41:37.236Z,97589.28
2023-03-18T12:43:38.890Z,97592.69
2023-03-18T12:45:40.413Z,97596.09
2023-03-18T12:47:42.176Z,97601.03
2023-03-18T12:49:43.625Z,97604.44
2023-03-18T12:51:44.925Z,97600.16
2023-03-18T12:53:46.437Z,97596.72
2023-03-18T12:55:48.221Z,97602.59
2023-03-18T12:57:49.554Z,97596.72
2023-03-18T12:59:53.302Z,97596.72
2023-03-18T13:01:54.773Z,97600.38
2023-03-18T13:03:56.091Z,97596.72
2023-03-18T13:05:57.391Z,97587.69
2023-03-18T13:07:58.876Z,97588.84
2023-03-18T13:10:00.569Z,97585.88
2023-03-18T13:12:02.212Z,97587.53
2023-03-18T13:14:03.540Z,97590.50
2023-03-18T13:16:04.847Z,97584.34
2023-03-18T13:18:06.189Z,97586.78
2023-03-18T13:20:10.032Z,97590.13
2023-03-18T13:22:11.469Z,97597.56
2023-03-18T13:24:12.936Z,97583.94
2023-03-18T13:26:14.244Z,97578.75
2023-03-18T13:28:15.544Z,97581.31
2023-03-18T13:30:16.888Z,97583.88
2023-03-18T13:32:18.496Z,97577.94
2023-03-18T13:34:19.844Z,97578.19
2023-03-18T13:36:21.258Z,97571.78
2023-03-18T13:38:23.317Z,97577.22
2023-03-18T13:40:24.742Z,97585.19
2023-03-18T13:42:26.184Z,97592.13
2023-03-18T13:44:27.772Z,97584.69
2023-03-18T13:46:29.120Z,97582.28
2023-03-18T13:48:30.601Z,97580.63
2023-03-18T13:50:32.344Z,97583.25
2023-03-18T13:52:33.689Z,97593.41
2023-03-18T13:54:35.021Z,97585.72
2023-03-18T13:56:36.634Z,97588.13
2023-03-18T13:58:37.929Z,97581.22
2023-03-18T14:00:40.459Z,97576.03
2023-03-18T14:02:42.639Z,97583.59
2023-03-18T14:04:44.112Z,97584.38
2023-03-18T14:06:46.372Z,97584.28
2023-03-18T14:08:48.217Z,97584.13
2023-03-18T14:10:49.534Z,97586.56
2023-03-18T14:12:51.044Z,97573.72
2023-03-18T14:14:53.778Z,97573.72
2023-03-18T14:16:55.120Z,97574.59
2023-03-18T14:18:57.616Z,97576.28
2023-03-18T14:20:58.916Z,97571.25
2023-03-18T14:23:00.244Z,97573.88
2023-03-18T14:25:01.968Z,97572.97
2023-03-18T14:27:06.856Z,97561.72
2023-03-18T14:29:09.573Z,97560.00
2023-03-18T14:31:10.902Z,97557.47
2023-03-18T14:33:12.988Z,97549.88
2023-03-18T14:35:14.411Z,97557.63
2023-03-18T14:37:16.216Z,97560.28
2023-03-18T14:39:17.959Z,97555.38
2023-03-18T14:41:19.588Z,97560.44
2023-03-18T14:43:20.879Z,97557.09
2023-03-18T14:45:22.327Z,97549.34
2023-03-18T14:47:38.179Z,97558.66
2023-03-18T14:49:40.476Z,97551.06
2023-03-18T14:51:42.390Z,97548.59
2023-03-18T14:53:47.479Z,97537.59
2023-03-18T14:55:49.859Z,97541.84
2023-03-18T14:57:52.679Z,97535.81
2023-03-18T14:59:53.987Z,97541.75
2023-03-18T15:01:55.606Z,97540.84
2023-03-18T15:03:57.094Z,97537.50
2023-03-18T15:05:58.740Z,97541.78
2023-03-18T15:08:00.144Z,97536.84
2023-03-18T15:10:01.444Z,97535.22
2023-03-18T15:12:02.780Z,97535.38
2023-03-18T15:14:04.112Z,97535.44
2023-03-18T15:16:05.525Z,97528.75
2023-03-18T15:18:06.876Z,97539.75
2023-03-18T15:20:08.215Z,97554.19
2023-03-18T15:22:09.565Z,97537.09
2023-03-18T15:24:11.572Z,97538.84
2023-03-18T15:26:13.444Z,97545.59
2023-03-18T15:28:15.151Z,97544.66
2023-03-18T15:30:16.641Z,97546.38
2023-03-18T15:32:17.996Z,97549.75
2023-03-18T15:34:19.300Z,97547.22
2023-03-18T15:36:20.941Z,97547.41
2023-03-18T15:38:22.288Z,97546.78
2023-03-18T15:40:23.638Z,97549.56
2023-03-18T15:42:25.111Z,97549.69
2023-03-18T15:44:26.471Z,97559.13
2023-03-18T15:46:27.836Z,97560.09
2023-03-18T15:48:29.745Z,97558.66
2023-03-18T15:50:31.737Z,97554.63
2023-03-18T15:52:39.273Z,97551.59
2023-03-18T15:54:40.562Z,97555.72
2023-03-18T15:56:41.857Z,97563.44
2023-03-18T15:58:44.782Z,97570.94
2023-03-18T16:00:46.105Z,97566.69
2023-03-18T16:02:47.508Z,97570.09
2023-03-18T16:04:48.911Z,97567.69
2023-03-18T16:06:50.207Z,97566.09
2023-03-18T16:08:54.556Z,97567.94
2023-03-18T16:10:56.009Z,97565.53
2023-03-18T16:12:57.939Z,97569.06
2023-03-18T16:14:59.275Z,97567.53
2023-03-18T16:17:00.647Z,97568.53
2023-03-18T16:19:02.160Z,97573.69
2023-03-18T16:21:03.509Z,97571.13
2023-03-18T16:23:05.588Z,97571.13
2023-03-18T16:25:07.827Z,97573.63
2023-03-18T16:27:09.127Z,97581.22
2023-03-18T16:29:10.415Z,97570.97
2023-03-18T16:31:12.060Z,97580.16
2023-03-18T16:33:19.798Z,97583.53
2023-03-18T16:35:21.109Z,97440.25
2023-03-18T16:37:25.760Z,97587.53
2023-03-18T16:39:28.866Z,97586.63
2023-03-18T16:41:30.468Z,97596.78
2023-03-18T16:43:31.843Z,97604.44
2023-03-18T16:45:33.574Z,97600.31
2023-03-18T16:47:35.079Z,97602.97
2023-03-18T16:49:37.330Z,97603.13
2023-03-18T16:51:38.624Z,97605.00
2023-03-18T16:53:39.959Z,97610.13
2023-03-18T16:55:44.288Z,97608.50
2023-03-18T16:57:45.723Z,97610.13
2023-03-18T16:59:47.932Z,97614.25
2023-03-18T17:01:49.234Z,97611.59
2023-03-18T17:03:51.934Z,97614.84
2023-03-18T17:05:56.487Z,97624.06
2023-03-18T17:07:57.864Z,97626.53
2023-03-18T17:10:02.188Z,97628.09
2023-03-18T17:12:04.007Z,97623.72
2023-03-18T17:14:05.976Z,97623.69
2023-03-18T17:16:07.311Z,97621.06
2023-03-18T17:18:09.448Z,97615.59
2023-03-18T17:20:11.601Z,97605.47
2023-03-18T17:22:12.926Z,97607.59
2023-03-18T17:24:14.257Z,97605.66
2023-03-18T17:26:15.693Z,97614.06
2023-03-18T17:28:17.138Z,97608.91
2023-03-18T17:30:21.444Z,97618.69
2023-03-18T17:32:22.745Z,97622.50
2023-03-18T17:34:24.153Z,97612.75
2023-03-18T17:36:25.463Z,97613.69
2023-03-18T17:38:26.804Z,97614.50
2023-03-18T17:40:31.714Z,97627.28
2023-03-18T17:42:33.037Z,97616.97
2023-03-18T17:44:34.328Z,97624.47
2023-03-18T17:46:35.752Z,97622.88
2023-03-18T17:48:37.060Z,97624.50
2023-03-18T17:50:38.407Z,97639.72
2023-03-18T17:52:39.706Z,97640.53
2023-03-18T17:54:41.033Z,97639.31
2023-03-18T17:56:42.360Z,97640.44
2023-03-18T17:58:44.487Z,97644.44
2023-03-18T18:00:46.406Z,97642.28
2023-03-18T18:02:47.767Z,97643.34
2023-03-18T18:04:49.181Z,97648.34
2023-03-18T18:06:50.525Z,97630.97
2023-03-18T18:08:51.982Z,97632.22
2023-03-18T18:10:53.318Z,97632.72
2023-03-18T18:12:54.662Z,97616.94
2023-03-18T18:14:55.961Z,97616.22
2023-03-18T18:16:57.301Z,97615.69
2023-03-18T18:18:59.076Z,97623.44
2023-03-18T18:21:00.390Z,97618.41
2023-03-18T18:23:03.095Z,97616.00
2023-03-18T18:25:04.698Z,97618.47
2023-03-18T18:27:06.040Z,97617.22
2023-03-18T18:29:08.288Z,97620.53
2023-03-18T18:31:09.724Z,97626.75
2023-03-18T18:33:11.496Z,97621.78
2023-03-18T18:35:15.978Z,97626.69
2023-03-18T18:37:17.963Z,97627.94
2023-03-18T18:39:19.625Z,97630.03
2023-03-18T18:41:23.966Z,97621.94
2023-03-18T18:43:25.297Z,97618.72
2023-03-18T18:45:28.222Z,97611.13
2023-03-18T18:47:29.530Z,97609.06
2023-03-18T18:49:30.956Z,97618.69
2023-03-18T18:51:32.557Z,97617.13
2023-03-18T18:53:35.741Z,97625.66
2023-03-18T18:55:37.100Z,97613.84
2023-03-18T18:57:38.415Z,97621.56
2023-03-18T18:59:39.743Z,97627.50
2023-03-18T19:01:41.056Z,97630.06
2023-03-18T19:03:45.281Z,97621.56
2023-03-18T19:05:46.581Z,97624.06
2023-03-18T19:07:47.878Z,97624.97
2023-03-18T19:09:49.645Z,97615.63
2023-03-18T19:11:56.818Z,97607.84
2023-03-18T19:13:58.690Z,97609.63
2023-03-18T19:16:03.048Z,97608.84
2023-03-18T19:18:06.567Z,97606.78
2023-03-18T19:20:07.911Z,97594.06
2023-03-18T19:22:09.443Z,97605.09
2023-03-18T19:24:10.832Z,97602.00
2023-03-18T19:26:12.319Z,97605.09
2023-03-18T19:28:13.653Z,97497.00
2023-03-18T19:30:16.605Z,97605.44
2023-03-18T19:32:20.805Z,97599.59
2023-03-18T19:34:22.159Z,97598.38
2023-03-18T19:36:23.685Z,97600.53
2023-03-18T19:38:24.977Z,97599.22
2023-03-18T19:42:30.960Z,97607.06
2023-03-18T19:44:32.258Z,97612.22
2023-03-18T19:46:36.013Z,97605.00
2023-03-18T19:48:37.356Z,97611.16
2023-03-18T19:50:38.649Z,97629.25
2023-03-18T19:52:40.035Z,97612.19
2023-03-18T19:54:41.564Z,97615.19
2023-03-18T19:56:42.865Z,97619.56
2023-03-18T19:58:44.186Z,97610.94
2023-03-18T20:00:45.603Z,97615.22
2023-03-18T20:02:49.181Z,97616.84
2023-03-18T20:04:50.632Z,97628.28
2023-03-18T20:06:52.079Z,97621.97
2023-03-18T20:09:02.154Z,97627.84
2023-03-18T20:11:03.447Z,97624.09
2023-03-18T20:13:04.780Z,97630.66
2023-03-18T20:15:06.084Z,97627.59
2023-03-18T20:17:09.013Z,97623.06
2023-03-18T20:19:11.459Z,97621.06
2023-03-18T20:21:12.760Z,97618.81
2023-03-18T20:23:14.060Z,97607.03
2023-03-18T20:25:15.624Z,97614.94
2023-03-18T20:27:17.492Z,97609.38
2023-03-18T20:29:19.087Z,97607.38
2023-03-18T20:31:20.757Z,97610.38
2023-03-18T20:33:22.587Z,97607.75
2023-03-18T20:35:23.880Z,97619.41
2023-03-18T20:37:25.266Z,97626.13
2023-03-18T20:39:29.773Z,97622.69
2023-03-18T20:41:31.127Z,97632.06
2023-03-18T20:43:35.352Z,97624.41
2023-03-18T20:45:36.692Z,97620.13
2023-03-18T20:47:38.011Z,97624.38
2023-03-18T20:49:43.764Z,97613.44
2023-03-18T20:51:45.627Z,97619.66
2023-03-18T20:53:46.959Z,97630.06
2023-03-18T20:55:48.270Z,97630.03
2023-03-18T20:57:49.662Z,97621.19
2023-03-18T20:59:51.649Z,97622.88
2023-03-18T21:01:53.017Z,97618.81
2023-03-18T21:03:54.335Z,97619.63
2023-03-18T21:05:59.046Z,97615.25
2023-03-18T21:08:03.200Z,97609.91
2023-03-18T21:10:04.514Z,97610.69
2023-03-18T21:12:06.015Z,97604.91
2023-03-18T21:14:07.330Z,97604.03
2023-03-18T21:16:08.624Z,97607.09
2023-03-18T21:18:09.916Z,97606.16
2023-03-18T21:20:21.825Z,97605.06
2023-03-18T21:22:24.003Z,97603.53
2023-03-18T21:24:25.364Z,97605.56
2023-03-18T21:26:26.693Z,97598.25
2023-03-18T21:28:28.020Z,97602.63
2023-03-18T21:30:29.440Z,97604.22
2023-03-18T21:32:33.614Z,97599.94
2023-03-18T21:34:35.007Z,97600.91
2023-03-18T21:36:42.119Z,97598.44
2023-03-18T21:38:43.420Z,97603.66
2023-03-18T21:40:44.761Z,97609.69
2023-03-18T21:42:46.612Z,97609.59
2023-03-18T21:44:48.116Z,97611.88
2023-03-18T21:46:49.411Z,97612.38
2023-03-18T21:48:51.325Z,97611.09
2023-03-18T21:50:52.633Z,97609.25
2023-03-18T21:52:53.958Z,97603.75
2023-03-18T21:54:55.383Z,97607.31
2023-03-18T21:56:56.681Z,97601.91
2023-03-18T21:58:57.981Z,97601.19
2023-03-18T22:00:59.327Z,97609.72
2023-03-18T22:03:00.637Z,97616.06
2023-03-18T22:05:01.994Z,97608.78
2023-03-18T22:07:03.396Z,97621.19
2023-03-18T22:09:04.787Z,97611.47
2023-03-18T22:11:09.604Z,97609.16
2023-03-18T22:13:10.903Z,97607.81
2023-03-18T22:15:12.215Z,97610.13
2023-03-18T22:17:13.519Z,97625.13
2023-03-18T22:19:14.849Z,97612.88
2023-03-18T22:21:16.190Z,97611.69
2023-03-18T22:23:17.544Z,97613.91
2023-03-18T22:25:18.879Z,97622.16
2023-03-18T22:27:20.292Z,97615.09
2023-03-18T22:29:24.218Z,97610.53
2023-03-18T22:31:25.621Z,97613.31
2023-03-18T22:33:27.019Z,97615.63
2023-03-18T22:35:28.395Z,97618.78
2023-03-18T22:37:29.822Z,97618.56
2023-03-18T22:39:31.125Z,97613.56
2023-03-18T22:41:32.490Z,97621.13
2023-03-18T22:43:34.813Z,97615.31
2023-03-18T22:45:38.054Z,97622.84
2023-03-18T22:47:40.361Z,97623.66
2023-03-18T22:49:41.696Z,97622.91
2023-03-18T22:51:44.777Z,97618.69
2023-03-18T22:53:46.096Z,97618.56
2023-03-18T22:55:47.446Z,97621.91
2023-03-18T22:57:48.889Z,97624.19
2023-03-18T22:59:50.288Z,97622.22
2023-03-18T23:01:51.659Z,97617.88
2023-03-18T23:03:53.090Z,97612.09
2023-03-18T23:05:54.490Z,97609.31
2023-03-18T23:07:55.828Z,97615.66
2023-03-18T23:10:00.336Z,97616.50
2023-03-18T23:12:01.676Z,97629.81
2023-03-18T23:14:03.615Z,97631.50
2023-03-18T23:16:05.281Z,97617.34
2023-03-18T23:18:06.714Z,97616.47
2023-03-18T23:20:08.462Z,97613.97
2023-03-18T23:22:09.760Z,97610.63
2023-03-18T23:24:11.076Z,97610.94
2023-03-18T23:26:12.420Z,97613.13
2023-03-18T23:28:13.902Z,97617.88
2023-03-18T23:30:15.298Z,97609.94
2023-03-18T23:32:16.588Z,97614.75
2023-03-18T23:34:18.023Z,97616.13
2023-03-18T23:36:19.375Z,97604.75
2023-03-18T23:38:20.892Z,97606.28
2023-03-18T23:40:22.223Z,97607.03
2023-03-18T23:42:23.552Z,97617.91
2023-03-18T23:44:25.684Z,97608.47
2023-03-18T23:46:27.044Z,97606.63
2023-03-18T23:48:28.373Z,97609.25
2023-03-18T23:50:29.672Z,97601.47
2023-03-18T23:52:31.353Z,97606.50